Wamac, Illinois
Current Conditions -  °F | °C
As of 3:35 PM on Friday 24 Oct 2014 (Local Time) from KENL Reporting Station
Scattered Clouds Scattered Clouds  
Wind Chill: 68°   Ceiling: Unl
Heat Index: 68°   Visibility: 10mi
Dew Point: 52°   Wind: 8mph
Humidity: 56%   Direction: 260°W
Pressure: 30.05"   Gusts: NA
Location:  38.5134°N, 89.1673°W
Report Text: KENL 242035Z AUTO 26007KT 10SM SCT032 20/11 A3005 RMK AO2 T02010111
Loading
Personal Weather Stations






























Interactive Weather Map
Tropical Storm Tracking
New forecast layout! Learn more

10-Day Weather Forecast

Advertisements
Track Severe Weather on mobile